Time;durP1;ratioP1;P1;durP2;ratioP2;P2;SDS_P1;SDS_P2;PMS_P1;PMS_P2;Temp;Humidity;BMP_temperature;BMP_pressure;BME280_temperature;BME280_humidity;BME280_pressure;Samples;Min_cycle;Max_cycle;Signal;HPM_P1;HPM_P2
2023/03/07 00:02:18;;;;;;;24.88;11.15;;;;;;;;;;5058390;28;20594;-77
2023/03/07 00:04:45;;;;;;;24.45;11.85;;;;;;;;;;5067897;28;20048;-79
2023/03/07 00:07:13;;;;;;;21.10;9.75;;;;;;;;;;5060245;28;20060;-78
2023/03/07 00:09:39;;;;;;;22.50;10.52;;;;;;;;;;5061923;28;20073;-78
2023/03/07 00:12:08;;;;;;;22.65;11.10;;;;;;;;;;5080457;28;20049;-77
2023/03/07 00:14:35;;;;;;;24.55;10.40;;;;;;;;;;5072081;28;20152;-77
2023/03/07 00:17:03;;;;;;;21.17;10.85;;;;;;;;;;5058348;28;20125;-78
2023/03/07 00:19:30;;;;;;;23.05;10.88;;;;;;;;;;5062591;28;20108;-77
2023/03/07 00:21:56;;;;;;;23.83;11.80;;;;;;;;;;5058887;28;20523;-79
2023/03/07 00:24:23;;;;;;;22.15;10.38;;;;;;;;;;5077288;28;20104;-78
2023/03/07 00:26:50;;;;;;;22.40;10.45;;;;;;;;;;5076342;28;20041;-78
2023/03/07 00:29:16;;;;;;;23.27;10.63;;;;;;;;;;5072050;28;20036;-78
2023/03/07 00:31:43;;;;;;;25.30;12.60;;;;;;;;;;5071203;28;20088;-79
2023/03/07 00:34:12;;;;;;;23.58;11.43;;;;;;;;;;5080979;28;20044;-77
2023/03/07 00:36:38;;;;;;;22.83;10.05;;;;;;;;;;5070108;28;20049;-76
2023/03/07 00:39:05;;;;;;;22.42;10.57;;;;;;;;;;5078893;28;20131;-78
2023/03/07 00:41:32;;;;;;;23.25;11.25;;;;;;;;;;5066601;28;20131;-79
2023/03/07 00:43:59;;;;;;;22.33;10.73;;;;;;;;;;5074200;28;20096;-77
2023/03/07 00:46:26;;;;;;;24.05;11.57;;;;;;;;;;5056882;28;20148;-79
2023/03/07 00:48:53;;;;;;;26.05;10.15;;;;;;;;;;5066830;28;20131;-79
2023/03/07 00:51:23;;;;;;;24.95;11.13;;;;;;;;;;5073119;28;20056;-77
2023/03/07 00:53:50;;;;;;;21.75;11.15;;;;;;;;;;5069793;28;20073;-78
2023/03/07 00:56:18;;;;;;;20.88;10.50;;;;;;;;;;5077698;28;20051;-78
2023/03/07 00:58:45;;;;;;;23.77;11.02;;;;;;;;;;5072539;28;20380;-77
2023/03/07 01:01:14;;;;;;;20.60;10.15;;;;;;;;;;5077395;28;20132;-78
2023/03/07 01:03:41;;;;;;;23.48;11.02;;;;;;;;;;5069402;28;20529;-77
2023/03/07 01:06:11;;;;;;;23.33;11.40;;;;;;;;;;5059112;28;20083;-79
2023/03/07 01:08:42;;;;;;;22.58;11.25;;;;;;;;;;5060742;28;20102;-78
2023/03/07 01:11:10;;;;;;;23.25;10.05;;;;;;;;;;5055748;28;20132;-78
2023/03/07 01:13:37;;;;;;;23.48;10.68;;;;;;;;;;5062099;28;20049;-78
2023/03/07 01:16:08;;;;;;;25.85;11.65;;;;;;;;;;5064432;28;20594;-78
2023/03/07 01:18:36;;;;;;;23.38;12.02;;;;;;;;;;5079848;28;20048;-78
2023/03/07 01:21:11;;;;;;;23.92;11.77;;;;;;;;;;5076833;28;20067;-77
2023/03/07 01:23:39;;;;;;;25.90;12.40;;;;;;;;;;5074919;28;20049;-78
2023/03/07 01:26:06;;;;;;;24.20;11.05;;;;;;;;;;5072370;28;20074;-77
2023/03/07 01:28:32;;;;;;;23.45;11.00;;;;;;;;;;5101773;22;20049;-77
2023/03/07 01:30:59;;;;;;;26.00;12.55;;;;;;;;;;5076640;28;20506;-78
2023/03/07 01:33:26;;;;;;;25.65;11.60;;;;;;;;;;5080379;28;20487;-78
2023/03/07 01:35:53;;;;;;;23.02;11.65;;;;;;;;;;5079708;28;20067;-78
2023/03/07 01:38:19;;;;;;;21.17;10.55;;;;;;;;;;5080408;28;20052;-78
2023/03/07 01:40:47;;;;;;;23.42;10.30;;;;;;;;;;5090923;28;20079;-78
2023/03/07 01:43:26;;;;;;;21.25;9.95;;;;;;;;;;5080248;28;20048;-79
2023/03/07 01:46:40;;;;;;;18.90;9.68;;;;;;;;;;5083621;28;20040;-79
2023/03/07 01:49:11;;;;;;;19.35;9.98;;;;;;;;;;5081052;28;20109;-78
2023/03/07 01:51:41;;;;;;;20.45;10.45;;;;;;;;;;5080116;28;20052;-79
2023/03/07 01:54:10;;;;;;;21.02;9.88;;;;;;;;;;5080632;28;20573;-79
2023/03/07 01:56:39;;;;;;;20.88;9.45;;;;;;;;;;5080166;28;20108;-79
2023/03/07 01:59:07;;;;;;;20.80;10.77;;;;;;;;;;5095523;28;20052;-78
2023/03/07 02:01:34;;;;;;;19.80;9.13;;;;;;;;;;5095209;28;20037;-79
2023/03/07 02:04:04;;;;;;;21.88;10.15;;;;;;;;;;5085831;28;20104;-80
2023/03/07 02:06:35;;;;;;;24.10;10.63;;;;;;;;;;5086198;28;20129;-79
2023/03/07 02:09:03;;;;;;;21.38;10.18;;;;;;;;;;5086190;28;20071;-79
2023/03/07 02:11:30;;;;;;;20.77;10.05;;;;;;;;;;5084548;28;20056;-79
2023/03/07 02:13:58;;;;;;;20.55;9.07;;;;;;;;;;5100738;28;20064;-79
2023/03/07 02:16:25;;;;;;;17.73;8.82;;;;;;;;;;5094611;28;20139;-80
2023/03/07 02:18:52;;;;;;;21.65;10.05;;;;;;;;;;5084138;28;20313;-78
2023/03/07 02:21:31;;;;;;;16.83;8.75;;;;;;;;;;5083923;28;20052;-78
2023/03/07 02:24:04;;;;;;;19.30;9.05;;;;;;;;;;5084604;28;20040;-79
2023/03/07 02:26:45;;;;;;;19.35;9.27;;;;;;;;;;5092816;28;20131;-79
2023/03/07 02:29:12;;;;;;;16.73;8.75;;;;;;;;;;5102410;28;20131;-79
2023/03/07 02:31:40;;;;;;;18.75;8.85;;;;;;;;;;5094936;28;20102;-80
2023/03/07 02:34:19;;;;;;;20.30;9.18;;;;;;;;;;5103536;28;20040;-81
2023/03/07 02:36:46;;;;;;;18.73;8.43;;;;;;;;;;5093252;28;20067;-78
2023/03/07 02:39:13;;;;;;;20.17;8.82;;;;;;;;;;5083739;28;20102;-80
2023/03/07 02:41:42;;;;;;;18.95;9.13;;;;;;;;;;5084965;28;20036;-79
2023/03/07 02:44:09;;;;;;;20.00;10.70;;;;;;;;;;5087491;28;20071;-79
2023/03/07 02:46:36;;;;;;;19.65;8.77;;;;;;;;;;5085036;28;20068;-80
2023/03/07 02:49:02;;;;;;;19.55;8.88;;;;;;;;;;5084498;28;20049;-79
2023/03/07 02:51:29;;;;;;;18.65;8.63;;;;;;;;;;5084001;28;20045;-79
2023/03/07 02:53:56;;;;;;;19.00;8.63;;;;;;;;;;5084116;28;20075;-79
2023/03/07 02:56:23;;;;;;;20.10;8.43;;;;;;;;;;5088099;28;20591;-80
2023/03/07 02:58:51;;;;;;;16.63;8.32;;;;;;;;;;5103267;28;20048;-78
2023/03/07 03:01:17;;;;;;;18.90;9.27;;;;;;;;;;5102816;28;20079;-79
2023/03/07 03:03:44;;;;;;;21.33;8.52;;;;;;;;;;5104037;28;20139;-80
2023/03/07 03:06:11;;;;;;;18.92;8.70;;;;;;;;;;5101004;28;21257;-79
2023/03/07 03:08:37;;;;;;;18.02;8.68;;;;;;;;;;5104185;28;20051;-80
2023/03/07 03:11:04;;;;;;;19.75;8.30;;;;;;;;;;5102612;28;20101;-79
2023/03/07 03:13:31;;;;;;;18.52;8.00;;;;;;;;;;5083056;28;20080;-79
2023/03/07 03:15:59;;;;;;;20.98;8.98;;;;;;;;;;5082305;28;20159;-79
2023/03/07 03:18:28;;;;;;;18.77;8.77;;;;;;;;;;5084876;28;20045;-79
2023/03/07 03:20:54;;;;;;;19.40;9.00;;;;;;;;;;5084336;28;20550;-79
2023/03/07 03:23:21;;;;;;;20.10;9.65;;;;;;;;;;5102631;28;20068;-80
2023/03/07 03:25:57;;;;;;;18.05;8.50;;;;;;;;;;5099346;28;20066;-79
2023/03/07 03:28:24;;;;;;;18.80;8.63;;;;;;;;;;5100197;28;20044;-80
2023/03/07 03:30:59;;;;;;;20.20;8.57;;;;;;;;;;5103053;28;20040;-79
2023/03/07 03:33:27;;;;;;;18.75;8.82;;;;;;;;;;5104044;28;20052;-79
2023/03/07 03:35:54;;;;;;;21.00;8.45;;;;;;;;;;5103893;28;20056;-79
2023/03/07 03:38:21;;;;;;;17.88;9.10;;;;;;;;;;5096897;28;20040;-79
2023/03/07 03:40:47;;;;;;;21.85;8.55;;;;;;;;;;5083119;28;20051;-79
2023/03/07 03:43:14;;;;;;;17.92;8.43;;;;;;;;;;5083001;28;20052;-79
2023/03/07 03:45:41;;;;;;;19.35;8.45;;;;;;;;;;5092510;28;20074;-79
2023/03/07 03:48:10;;;;;;;18.27;8.30;;;;;;;;;;5098173;28;20060;-78
2023/03/07 03:50:36;;;;;;;21.88;8.35;;;;;;;;;;5089241;28;20067;-79
2023/03/07 03:53:03;;;;;;;20.08;8.68;;;;;;;;;;5101086;28;20533;-79
2023/03/07 03:55:30;;;;;;;18.30;8.15;;;;;;;;;;5097984;28;20097;-79
2023/03/07 03:57:56;;;;;;;17.98;8.82;;;;;;;;;;5086696;28;20110;-79
2023/03/07 04:00:23;;;;;;;21.60;8.48;;;;;;;;;;5099522;28;20041;-79
2023/03/07 04:02:50;;;;;;;19.75;8.77;;;;;;;;;;5084095;28;20055;-80
2023/03/07 04:05:18;;;;;;;16.02;7.85;;;;;;;;;;5083482;28;20148;-79
2023/03/07 04:07:44;;;;;;;16.88;8.32;;;;;;;;;;5083791;28;20051;-80
2023/03/07 04:10:11;;;;;;;17.15;8.60;;;;;;;;;;5084603;28;20045;-80
2023/03/07 04:12:38;;;;;;;18.30;8.13;;;;;;;;;;5103259;28;20079;-80
2023/03/07 04:15:07;;;;;;;21.63;9.95;;;;;;;;;;5102793;28;20040;-80
2023/03/07 04:17:33;;;;;;;16.88;7.95;;;;;;;;;;5062618;28;20060;-79
2023/03/07 04:20:00;;;;;;;18.85;8.68;;;;;;;;;;5095408;28;20154;-79
2023/03/07 04:22:28;;;;;;;19.38;8.90;;;;;;;;;;5102241;28;20067;-79
2023/03/07 04:24:55;;;;;;;19.70;8.98;;;;;;;;;;5090209;28;20087;-78
2023/03/07 04:27:22;;;;;;;17.90;8.20;;;;;;;;;;5085959;28;20056;-79
2023/03/07 04:29:48;;;;;;;22.23;8.73;;;;;;;;;;5091432;28;20068;-79
2023/03/07 04:32:15;;;;;;;15.30;7.68;;;;;;;;;;5089502;28;20076;-79
2023/03/07 04:34:42;;;;;;;15.88;7.85;;;;;;;;;;5087892;28;20040;-80
2023/03/07 04:37:08;;;;;;;18.55;8.52;;;;;;;;;;5087037;28;20048;-79
2023/03/07 04:39:36;;;;;;;15.75;7.88;;;;;;;;;;5087515;28;20082;-79
2023/03/07 04:42:03;;;;;;;18.05;8.65;;;;;;;;;;5087424;28;20075;-79
2023/03/07 04:44:30;;;;;;;16.20;8.27;;;;;;;;;;5088064;28;20133;-79
2023/03/07 04:46:56;;;;;;;17.50;8.30;;;;;;;;;;5093598;28;20055;-79
2023/03/07 04:49:23;;;;;;;18.70;8.45;;;;;;;;;;5096510;28;20036;-79
2023/03/07 04:51:49;;;;;;;19.60;8.52;;;;;;;;;;5095964;28;20080;-78
2023/03/07 04:54:16;;;;;;;19.15;8.95;;;;;;;;;;5097456;28;20459;-79
2023/03/07 04:56:44;;;;;;;19.05;8.57;;;;;;;;;;5095280;28;20056;-79
2023/03/07 04:59:11;;;;;;;18.15;8.73;;;;;;;;;;5099212;28;20041;-80
2023/03/07 05:01:37;;;;;;;15.98;7.22;;;;;;;;;;5117171;28;20044;-80
2023/03/07 05:04:04;;;;;;;20.23;8.70;;;;;;;;;;5116350;28;20052;-79
2023/03/07 05:06:31;;;;;;;18.00;7.53;;;;;;;;;;5093983;28;20064;-79
2023/03/07 05:08:57;;;;;;;18.70;8.85;;;;;;;;;;5093997;28;20048;-80
2023/03/07 05:11:24;;;;;;;20.05;8.57;;;;;;;;;;5108063;28;20618;-80
2023/03/07 05:13:52;;;;;;;18.42;8.50;;;;;;;;;;5109537;28;20083;-78
2023/03/07 05:16:18;;;;;;;17.67;8.48;;;;;;;;;;5109080;28;20063;-78
2023/03/07 05:18:45;;;;;;;16.80;8.18;;;;;;;;;;5100104;28;20104;-78
2023/03/07 05:21:12;;;;;;;18.40;8.45;;;;;;;;;;5083889;28;20090;-81
2023/03/07 05:23:38;;;;;;;19.02;7.85;;;;;;;;;;5089535;28;20040;-79
2023/03/07 05:26:05;;;;;;;18.90;7.40;;;;;;;;;;5096758;28;20052;-79
2023/03/07 05:28:32;;;;;;;19.17;8.25;;;;;;;;;;5109248;28;20044;-79
2023/03/07 05:31:01;;;;;;;19.20;9.50;;;;;;;;;;5109217;28;20514;-79
2023/03/07 05:33:27;;;;;;;21.58;8.70;;;;;;;;;;5105104;28;20043;-78
2023/03/07 05:35:55;;;;;;;17.25;8.30;;;;;;;;;;5103638;28;20074;-78
2023/03/07 05:38:21;;;;;;;17.13;8.02;;;;;;;;;;5102401;28;20510;-79
2023/03/07 05:40:48;;;;;;;20.48;8.90;;;;;;;;;;5108698;28;20103;-80
2023/03/07 05:43:15;;;;;;;18.13;8.18;;;;;;;;;;5104720;28;20096;-78
2023/03/07 05:45:42;;;;;;;18.55;8.60;;;;;;;;;;5104588;28;20070;-79
2023/03/07 05:48:10;;;;;;;19.33;9.38;;;;;;;;;;5101686;28;20123;-79
2023/03/07 05:50:38;;;;;;;14.80;7.90;;;;;;;;;;5100088;28;20048;-80
2023/03/07 05:53:05;;;;;;;17.55;7.93;;;;;;;;;;5103731;28;20118;-78
2023/03/07 05:55:32;;;;;;;16.73;8.10;;;;;;;;;;5083199;28;20048;-78
2023/03/07 05:57:58;;;;;;;19.60;7.95;;;;;;;;;;5088198;28;20045;-80
2023/03/07 06:00:25;;;;;;;18.67;8.05;;;;;;;;;;5105379;28;20127;-79
2023/03/07 06:02:52;;;;;;;20.23;8.80;;;;;;;;;;5104214;28;20040;-79
2023/03/07 06:05:20;;;;;;;22.15;8.63;;;;;;;;;;5104290;28;20403;-79
2023/03/07 06:07:46;;;;;;;18.15;8.45;;;;;;;;;;5083466;28;20079;-80
2023/03/07 06:10:13;;;;;;;18.10;7.93;;;;;;;;;;5084369;28;20087;-80
2023/03/07 06:12:40;;;;;;;18.33;8.50;;;;;;;;;;5085222;28;20045;-80
2023/03/07 06:15:08;;;;;;;22.02;9.13;;;;;;;;;;5083780;28;20041;-80
2023/03/07 06:17:35;;;;;;;19.23;7.97;;;;;;;;;;5083564;28;20048;-80
2023/03/07 06:20:02;;;;;;;16.35;7.65;;;;;;;;;;5084325;28;20076;-78
2023/03/07 06:22:30;;;;;;;17.77;7.53;;;;;;;;;;5083834;28;20049;-79
2023/03/07 06:24:57;;;;;;;20.50;7.97;;;;;;;;;;5083328;28;20041;-79
2023/03/07 06:27:24;;;;;;;19.58;8.00;;;;;;;;;;5082656;28;20072;-80
2023/03/07 06:29:50;;;;;;;18.88;8.30;;;;;;;;;;5082864;28;20083;-78
2023/03/07 06:32:17;;;;;;;18.15;8.07;;;;;;;;;;5091402;28;20074;-82
2023/03/07 06:34:44;;;;;;;16.80;7.68;;;;;;;;;;5103583;28;20063;-79
2023/03/07 06:37:11;;;;;;;17.75;7.60;;;;;;;;;;5102212;28;20519;-79
2023/03/07 06:39:39;;;;;;;17.95;8.18;;;;;;;;;;5100191;28;20059;-79
2023/03/07 06:42:06;;;;;;;16.58;7.85;;;;;;;;;;5076536;28;20131;-78
2023/03/07 06:44:32;;;;;;;16.95;8.13;;;;;;;;;;5079460;28;20116;-79
2023/03/07 06:46:59;;;;;;;18.92;8.10;;;;;;;;;;5076947;28;20041;-78
2023/03/07 06:49:26;;;;;;;19.95;8.75;;;;;;;;;;5076439;28;20151;-80
2023/03/07 06:51:52;;;;;;;17.02;8.77;;;;;;;;;;5076490;28;20124;-79
2023/03/07 06:54:19;;;;;;;15.90;7.32;;;;;;;;;;5080022;28;20502;-79
2023/03/07 06:56:47;;;;;;;20.30;8.32;;;;;;;;;;5075781;28;20083;-80
2023/03/07 06:59:14;;;;;;;14.63;7.75;;;;;;;;;;5082904;28;20066;-79
2023/03/07 07:01:41;;;;;;;18.88;7.53;;;;;;;;;;5096134;28;20046;-79
2023/03/07 07:04:09;;;;;;;19.70;8.10;;;;;;;;;;5093036;28;20044;-79
2023/03/07 07:06:36;;;;;;;17.75;8.40;;;;;;;;;;5080008;28;20102;-80
2023/03/07 07:09:04;;;;;;;24.27;8.30;;;;;;;;;;5084606;28;20075;-79
2023/03/07 07:11:30;;;;;;;17.75;8.52;;;;;;;;;;5091704;28;20074;-80
2023/03/07 07:13:58;;;;;;;20.55;8.20;;;;;;;;;;5112529;28;20056;-77
2023/03/07 07:16:25;;;;;;;20.35;9.00;;;;;;;;;;5093865;28;20033;-80
2023/03/07 07:18:52;;;;;;;20.05;8.43;;;;;;;;;;5079514;28;20041;-79
2023/03/07 07:21:19;;;;;;;16.23;8.18;;;;;;;;;;5094842;28;20185;-80
2023/03/07 07:23:45;;;;;;;16.73;8.70;;;;;;;;;;5076202;28;20076;-81
2023/03/07 07:26:12;;;;;;;20.00;8.57;;;;;;;;;;5076189;28;20115;-80
2023/03/07 07:28:39;;;;;;;19.95;8.57;;;;;;;;;;5076035;28;20127;-80
2023/03/07 07:31:08;;;;;;;21.05;8.20;;;;;;;;;;5068918;22;20068;-79
2023/03/07 07:33:36;;;;;;;20.13;9.07;;;;;;;;;;5035798;28;20056;-78
2023/03/07 07:36:06;;;;;;;19.17;9.05;;;;;;;;;;5020644;28;20507;-79
2023/03/07 07:38:32;;;;;;;18.63;7.72;;;;;;;;;;5036392;28;20105;-78
2023/03/07 07:41:01;;;;;;;17.10;8.15;;;;;;;;;;5036568;28;20152;-78
2023/03/07 07:43:28;;;;;;;21.60;8.48;;;;;;;;;;5003506;28;20078;-79
2023/03/07 07:45:55;;;;;;;17.73;7.65;;;;;;;;;;4999006;28;20236;-78
2023/03/07 07:48:23;;;;;;;17.42;7.95;;;;;;;;;;4996659;28;20058;-78
2023/03/07 07:50:59;;;;;;;22.13;9.75;;;;;;;;;;4996531;28;20050;-78
2023/03/07 07:53:28;;;;;;;20.95;8.57;;;;;;;;;;4999920;28;20045;-78
2023/03/07 07:55:54;;;;;;;17.48;7.95;;;;;;;;;;5014938;28;20046;-78
2023/03/07 07:58:21;;;;;;;15.55;7.25;;;;;;;;;;5015628;28;20045;-78
2023/03/07 08:00:48;;;;;;;19.17;8.38;;;;;;;;;;5017750;28;20073;-79
2023/03/07 08:03:14;;;;;;;18.63;8.57;;;;;;;;;;5008275;28;20052;-78
2023/03/07 08:05:47;;;;;;;19.85;8.20;;;;;;;;;;5000076;28;20037;-79
2023/03/07 08:08:14;;;;;;;20.27;8.18;;;;;;;;;;5012015;28;20052;-79
2023/03/07 08:10:42;;;;;;;16.88;8.20;;;;;;;;;;5000570;28;20066;-80
2023/03/07 08:13:12;;;;;;;19.15;9.15;;;;;;;;;;5005692;28;20049;-79
2023/03/07 08:15:40;;;;;;;18.55;7.57;;;;;;;;;;5014461;28;20041;-79
2023/03/07 08:18:09;;;;;;;17.70;8.27;;;;;;;;;;5018403;28;20045;-79
2023/03/07 08:20:36;;;;;;;19.33;7.55;;;;;;;;;;5017991;28;20046;-78
2023/03/07 08:23:04;;;;;;;16.30;7.88;;;;;;;;;;5016209;28;20121;-78
2023/03/07 08:25:31;;;;;;;16.67;7.70;;;;;;;;;;4998343;28;20043;-79
2023/03/07 08:28:02;;;;;;;19.80;8.60;;;;;;;;;;5000712;28;20046;-78
2023/03/07 08:30:31;;;;;;;18.85;8.18;;;;;;;;;;5017798;28;20054;-78
2023/03/07 08:32:58;;;;;;;17.48;7.93;;;;;;;;;;5017782;28;20060;-78
2023/03/07 08:35:26;;;;;;;15.25;7.20;;;;;;;;;;5017278;28;20076;-78
2023/03/07 08:37:55;;;;;;;18.33;8.07;;;;;;;;;;5017365;28;20053;-78
2023/03/07 08:40:24;;;;;;;17.55;7.30;;;;;;;;;;5003451;28;20038;-79
2023/03/07 08:42:53;;;;;;;15.90;7.88;;;;;;;;;;5014565;28;20420;-79
2023/03/07 08:45:20;;;;;;;16.65;8.32;;;;;;;;;;5016140;28;20496;-79
2023/03/07 08:47:47;;;;;;;17.45;7.72;;;;;;;;;;5011628;28;20046;-78
2023/03/07 08:50:13;;;;;;;18.08;8.27;;;;;;;;;;5008683;28;20118;-79
2023/03/07 08:52:42;;;;;;;15.45;7.30;;;;;;;;;;5014404;28;20052;-79
2023/03/07 08:55:10;;;;;;;17.23;7.97;;;;;;;;;;5012928;28;20054;-78
2023/03/07 08:57:38;;;;;;;17.67;8.02;;;;;;;;;;5005124;28;20053;-79
2023/03/07 09:00:08;;;;;;;17.52;7.22;;;;;;;;;;5009941;28;20074;-79
2023/03/07 09:02:35;;;;;;;15.70;6.85;;;;;;;;;;5022245;28;20046;-78
2023/03/07 09:05:01;;;;;;;18.50;7.95;;;;;;;;;;5023729;28;20486;-78
2023/03/07 09:07:28;;;;;;;18.05;7.97;;;;;;;;;;5031232;28;20152;-78
2023/03/07 09:09:55;;;;;;;16.27;7.60;;;;;;;;;;5018815;28;20531;-78
2023/03/07 09:12:21;;;;;;;18.20;7.75;;;;;;;;;;5018027;28;20129;-78
2023/03/07 09:14:54;;;;;;;16.35;7.22;;;;;;;;;;5017871;28;20053;-78
2023/03/07 09:17:21;;;;;;;12.38;6.53;;;;;;;;;;4999014;28;20457;-79
2023/03/07 09:19:49;;;;;;;15.85;7.32;;;;;;;;;;5007488;28;20073;-78
2023/03/07 09:22:16;;;;;;;16.95;7.60;;;;;;;;;;5018959;28;20104;-78
2023/03/07 09:24:42;;;;;;;17.52;7.95;;;;;;;;;;5018565;28;20707;-78
2023/03/07 09:27:10;;;;;;;16.42;7.72;;;;;;;;;;5011143;28;20153;-78
2023/03/07 09:29:36;;;;;;;19.52;7.90;;;;;;;;;;5015621;28;20053;-78
2023/03/07 09:32:05;;;;;;;19.73;8.40;;;;;;;;;;5017400;28;20061;-78
2023/03/07 09:34:32;;;;;;;14.80;7.32;;;;;;;;;;5017301;28;20129;-78
2023/03/07 09:36:59;;;;;;;17.45;7.70;;;;;;;;;;5020332;28;20512;-78
2023/03/07 09:39:25;;;;;;;18.88;7.72;;;;;;;;;;5017827;28;20078;-78
2023/03/07 09:42:05;;;;;;;16.85;7.35;;;;;;;;;;5016882;28;20048;-78
2023/03/07 09:45:04;;;;;;;16.38;7.70;;;;;;;;;;5004227;28;20053;-78
2023/03/07 09:50:29;;;;;;;16.50;8.35;;;;;;;;;;5154061;27;20359;-53
2023/03/07 09:53:02;;;;;;;14.75;7.22;;;;;;;;;;5131871;28;20523;-56
2023/03/07 09:55:30;;;;;;;16.52;7.30;;;;;;;;;;5132889;28;20492;-52
2023/03/07 09:58:00;;;;;;;18.45;7.13;;;;;;;;;;5129887;28;20620;-52
2023/03/07 10:00:31;;;;;;;20.58;8.13;;;;;;;;;;5112305;28;20047;-57
2023/03/07 10:03:08;;;;;;;13.93;7.47;;;;;;;;;;5105468;28;20101;-54
2023/03/07 10:05:42;;;;;;;16.30;7.10;;;;;;;;;;5111819;28;20039;-54
2023/03/07 10:08:13;;;;;;;19.35;8.63;;;;;;;;;;5105534;28;20505;-56
2023/03/07 10:10:43;;;;;;;30.27;8.95;;;;;;;;;;5108973;28;20047;-58
2023/03/07 10:13:23;;;;;;;18.38;7.40;;;;;;;;;;5095245;28;20043;-55
2023/03/07 10:15:54;;;;;;;19.10;8.85;;;;;;;;;;5092413;28;20512;-62
2023/03/07 10:18:47;;;;;;;15.73;7.97;;;;;;;;;;5093743;28;20051;-52
2023/03/07 10:21:23;;;;;;;17.77;7.82;;;;;;;;;;5095638;28;20117;-55
2023/03/07 10:24:20;;;;;;;20.70;9.27;;;;;;;;;;5112386;28;20556;-57
2023/03/07 10:26:53;;;;;;;16.02;7.25;;;;;;;;;;5099098;28;20070;-53
2023/03/07 10:29:26;;;;;;;18.55;8.18;;;;;;;;;;5089128;28;20642;-58
2023/03/07 10:31:56;;;;;;;19.63;7.85;;;;;;;;;;5087453;28;20113;-62
2023/03/07 10:34:26;;;;;;;22.67;10.15;;;;;;;;;;5087180;28;20101;-53
2023/03/07 10:36:57;;;;;;;21.42;8.70;;;;;;;;;;5090577;28;20049;-53
2023/03/07 10:39:32;;;;;;;15.88;7.55;;;;;;;;;;5108615;28;20085;-54
2023/03/07 10:41:58;;;;;;;21.40;8.77;;;;;;;;;;5092696;28;20176;-52
2023/03/07 10:44:29;;;;;;;15.77;7.45;;;;;;;;;;5092413;28;20412;-54
2023/03/07 10:47:00;;;;;;;20.10;8.40;;;;;;;;;;5092874;28;20048;-54
2023/03/07 10:49:29;;;;;;;17.92;7.57;;;;;;;;;;5092502;28;20090;-54
2023/03/07 10:52:01;;;;;;;17.38;7.95;;;;;;;;;;5094989;28;20101;-52
2023/03/07 10:54:31;;;;;;;16.63;7.82;;;;;;;;;;5092730;28;20055;-52
2023/03/07 10:57:07;;;;;;;19.77;8.30;;;;;;;;;;5092850;28;20051;-54
2023/03/07 10:59:34;;;;;;;16.42;7.57;;;;;;;;;;5091652;28;20056;-55
2023/03/07 11:02:02;;;;;;;22.25;8.73;;;;;;;;;;5094425;28;20048;-54
2023/03/07 11:04:42;;;;;;;17.27;8.48;;;;;;;;;;5099542;28;20645;-52
2023/03/07 11:07:26;;;;;;;17.37;8.40;;;;;;;;;;5080546;28;20106;-53
2023/03/07 11:09:53;;;;;;;16.23;8.15;;;;;;;;;;5078954;28;20052;-55
2023/03/07 11:12:21;;;;;;;19.75;8.65;;;;;;;;;;5094887;28;20090;-55
2023/03/07 11:14:50;;;;;;;18.33;8.63;;;;;;;;;;5083689;28;20070;-54
2023/03/07 11:17:20;;;;;;;17.42;7.88;;;;;;;;;;5086226;28;20044;-52
2023/03/07 11:19:48;;;;;;;17.13;8.73;;;;;;;;;;5094314;28;20055;-55
2023/03/07 11:22:23;;;;;;;19.80;8.63;;;;;;;;;;5094664;28;20048;-53
2023/03/07 11:25:02;;;;;;;19.67;8.43;;;;;;;;;;5087675;28;20516;-51
2023/03/07 11:27:36;;;;;;;22.73;9.20;;;;;;;;;;5079532;28;20040;-55
2023/03/07 11:30:20;;;;;;;17.88;8.55;;;;;;;;;;5083667;28;20074;-51
2023/03/07 11:32:57;;;;;;;19.60;8.40;;;;;;;;;;5083028;28;20053;-54
2023/03/07 11:35:45;;;;;;;17.00;7.82;;;;;;;;;;5079173;28;20631;-53
2023/03/07 11:38:24;;;;;;;18.83;8.50;;;;;;;;;;5079396;28;20040;-55
2023/03/07 11:40:56;;;;;;;18.83;9.32;;;;;;;;;;5079133;28;20048;-54
2023/03/07 11:43:40;;;;;;;20.85;9.15;;;;;;;;;;5085912;28;20052;-54
2023/03/07 11:46:13;;;;;;;19.38;9.20;;;;;;;;;;5078743;28;20060;-53
2023/03/07 11:48:54;;;;;;;19.45;8.27;;;;;;;;;;5092452;28;20055;-55
2023/03/07 11:51:40;;;;;;;18.67;8.32;;;;;;;;;;5098561;28;20455;-55
2023/03/07 11:54:17;;;;;;;18.90;9.35;;;;;;;;;;5088206;28;20052;-53
2023/03/07 11:56:49;;;;;;;19.17;9.40;;;;;;;;;;5081353;28;20045;-51
2023/03/07 11:59:46;;;;;;;18.02;8.70;;;;;;;;;;5086400;28;20416;-55
2023/03/07 12:02:41;;;;;;;18.52;8.23;;;;;;;;;;5079109;28;20125;-55
2023/03/07 12:05:20;;;;;;;23.02;9.30;;;;;;;;;;5083915;28;20122;-55
2023/03/07 12:08:10;;;;;;;20.02;9.77;;;;;;;;;;5086086;28;20049;-55
2023/03/07 12:10:49;;;;;;;20.10;9.23;;;;;;;;;;5080149;28;20109;-54
2023/03/07 12:13:32;;;;;;;20.15;8.57;;;;;;;;;;5081564;28;20053;-55
2023/03/07 12:16:10;;;;;;;16.52;8.68;;;;;;;;;;5093894;28;20044;-51
2023/03/07 12:18:58;;;;;;;17.40;8.25;;;;;;;;;;5093914;28;20048;-56
2023/03/07 12:21:48;;;;;;;17.67;8.45;;;;;;;;;;5078232;28;20053;-54
2023/03/07 12:24:19;;;;;;;18.52;8.10;;;;;;;;;;5082376;28;20135;-55
2023/03/07 12:26:56;;;;;;;18.70;8.77;;;;;;;;;;5097813;28;20055;-56
2023/03/07 12:29:35;;;;;;;21.08;9.15;;;;;;;;;;5096635;28;20048;-54
2023/03/07 12:32:06;;;;;;;18.55;8.93;;;;;;;;;;5080669;28;20131;-51
2023/03/07 12:34:40;;;;;;;19.38;9.45;;;;;;;;;;5097505;28;20117;-52
2023/03/07 12:37:11;;;;;;;18.75;8.77;;;;;;;;;;5094414;28;20055;-53
2023/03/07 12:39:46;;;;;;;19.17;8.90;;;;;;;;;;5078117;28;20306;-52
2023/03/07 12:42:23;;;;;;;20.67;8.90;;;;;;;;;;5080486;28;20105;-51
2023/03/07 12:44:51;;;;;;;16.35;7.75;;;;;;;;;;5097053;28;20187;-53
2023/03/07 12:47:25;;;;;;;16.65;8.38;;;;;;;;;;5081904;28;20070;-53
2023/03/07 12:49:56;;;;;;;15.55;8.60;;;;;;;;;;5077069;28;20040;-51
2023/03/07 12:52:35;;;;;;;20.00;9.40;;;;;;;;;;5080950;28;20051;-54
2023/03/07 12:55:14;;;;;;;17.98;9.25;;;;;;;;;;5096505;28;20044;-53
2023/03/07 12:57:46;;;;;;;17.83;8.15;;;;;;;;;;5083899;28;20048;-53
2023/03/07 13:00:19;;;;;;;18.60;8.75;;;;;;;;;;5078333;28;20052;-52
2023/03/07 13:02:55;;;;;;;17.25;8.50;;;;;;;;;;5088414;28;20088;-53
2023/03/07 13:05:23;;;;;;;17.73;9.02;;;;;;;;;;5077688;28;20052;-53
2023/03/07 13:07:50;;;;;;;20.38;9.63;;;;;;;;;;5089402;28;20461;-53
2023/03/07 13:10:19;;;;;;;18.15;8.73;;;;;;;;;;5088045;28;20048;-52
2023/03/07 13:12:48;;;;;;;17.05;9.13;;;;;;;;;;5092311;28;20116;-56
2023/03/07 13:16:01;;;;;;;17.45;9.57;;;;;;;;;;5088684;28;20074;-55
2023/03/07 13:18:31;;;;;;;20.25;9.95;;;;;;;;;;5076622;28;20123;-56
2023/03/07 13:21:31;;;;;;;16.73;8.82;;;;;;;;;;5073950;28;20048;-56
2023/03/07 13:24:35;;;;;;;18.13;9.05;;;;;;;;;;5078752;28;20127;-55
2023/03/07 13:27:03;;;;;;;15.82;8.38;;;;;;;;;;5081685;28;20047;-56
2023/03/07 13:30:18;;;;;;;18.20;9.27;;;;;;;;;;5079296;28;20049;-56
2023/03/07 13:33:00;;;;;;;20.10;9.85;;;;;;;;;;5004397;28;20092;-57
2023/03/07 13:35:55;;;;;;;17.52;9.45;;;;;;;;;;5088729;22;20093;-78
2023/03/07 13:38:31;;;;;;;19.67;8.95;;;;;;;;;;5090040;28;20054;-77
2023/03/07 13:40:59;;;;;;;18.73;8.73;;;;;;;;;;5089054;28;20083;-77
2023/03/07 13:44:01;;;;;;;18.45;9.63;;;;;;;;;;5091384;28;20071;-78
2023/03/07 13:46:46;;;;;;;18.52;8.45;;;;;;;;;;5070255;28;20094;-77
2023/03/07 13:49:36;;;;;;;16.90;8.35;;;;;;;;;;5070079;28;20049;-79
2023/03/07 13:52:40;;;;;;;19.20;9.80;;;;;;;;;;5070154;28;20080;-79
2023/03/07 13:55:24;;;;;;;16.20;7.93;;;;;;;;;;5060949;28;20067;-79
2023/03/07 13:57:52;;;;;;;16.77;9.55;;;;;;;;;;5061942;28;20041;-78
2023/03/07 14:00:25;;;;;;;16.67;9.10;;;;;;;;;;5069249;28;20052;-78
2023/03/07 14:02:53;;;;;;;18.13;8.90;;;;;;;;;;5065640;28;20481;-79
2023/03/07 14:05:22;;;;;;;22.80;10.02;;;;;;;;;;5054228;28;20056;-78
2023/03/07 14:07:50;;;;;;;19.70;9.27;;;;;;;;;;5062633;28;20053;-78
2023/03/07 14:10:21;;;;;;;20.13;9.52;;;;;;;;;;5064671;28;20098;-79
2023/03/07 14:13:08;;;;;;;16.33;9.13;;;;;;;;;;5068694;28;20083;-84
2023/03/07 14:15:42;;;;;;;18.85;9.20;;;;;;;;;;5060382;28;20392;-78
2023/03/07 14:18:18;;;;;;;18.77;9.18;;;;;;;;;;5063847;28;20045;-79
2023/03/07 14:20:56;;;;;;;19.17;8.40;;;;;;;;;;5058627;28;20048;-78
2023/03/07 14:23:49;;;;;;;20.33;9.50;;;;;;;;;;5057236;28;20147;-79
2023/03/07 14:26:19;;;;;;;16.67;8.90;;;;;;;;;;5050845;28;20049;-78
2023/03/07 14:28:51;;;;;;;18.30;9.40;;;;;;;;;;5069554;28;20128;-78
2023/03/07 14:31:25;;;;;;;16.35;8.60;;;;;;;;;;5069737;28;20058;-79
2023/03/07 14:33:52;;;;;;;18.05;9.15;;;;;;;;;;5069850;28;20127;-80
2023/03/07 14:36:23;;;;;;;18.67;9.63;;;;;;;;;;5057530;28;20083;-79
2023/03/07 14:38:50;;;;;;;;;;;;;;;;;;5077106;28;20055;-78
2023/03/07 14:41:35;;;;;;;18.40;9.30;;;;;;;;;;5078771;28;19920;-79
2023/03/07 14:44:25;;;;;;;19.17;9.05;;;;;;;;;;5082648;28;20048;-79
2023/03/07 14:47:05;;;;;;;15.10;8.48;;;;;;;;;;5086882;28;20132;-79
2023/03/07 14:49:38;;;;;;;19.25;9.05;;;;;;;;;;5084273;28;20819;-80
2023/03/07 14:52:13;;;;;;;16.15;7.53;;;;;;;;;;5082240;28;20040;-81
2023/03/07 14:54:40;;;;;;;17.92;8.73;;;;;;;;;;5088478;28;20434;-79